Mieres, Spain
Current Conditions -  °F | °C
As of 6:30 PM on Friday 24 Oct 2014 (Local Time) from LEAS Reporting Station
Clear Clear  
Wind Chill: 68°   Ceiling: Unl
Heat Index: 68°   Visibility: 6mi
Dew Point: 48°   Wind: 2mph
Humidity: 49%   Direction: NA
Pressure: 30.09"   Gusts: NA
Location:  43.25°N, 5.77°W
Report Text: LEAS 241630Z VRB02KT CAVOK 20/09 Q1019 NOSIG
Loading
Personal Weather Stations






























Interactive Weather Map
Tropical Storm Tracking
New forecast layout! Learn more

10-Day Weather Forecast

Advertisements
Track Severe Weather on mobile